Terminal Aerodrome Forecast
Issued by NWS

Home | Current Version | Previous Version | Text Only | Print | Product List | Glossary On
Versions: 1 2 3 4 5 6 7 8 9 10 11 12 13 14 15 16 17 18 19 20 21 22 23 24
000
FTUS41 KALY 021857 AAA
TAFPSF
TAF AMD
KPSF 021857Z 0219/0318 29020G35KT P6SM VCSH BKN040 OVC050
      TEMPO 0219/0221 2SM -SN BR BKN030 OVC040
     FM022100 29015G25KT P6SM VCSH SCT040 OVC050
     FM030000 30010KT P6SM SCT035 BKN050
     FM030700 30005KT P6SM FEW035
     FM031500 20005KT P6SM BKN150=

USA.gov is the U.S. government's official web portal to all federal, state and local government web resources and services.